Elmira Heights, New York
Current Conditions -  °F | °C
As of 10:53 PM on Saturday 25 Oct 2014 (Local Time) from KELM Reporting Station
Clear Clear  
Wind Chill: 54°   Ceiling: Unl
Heat Index: 54°   Visibility: 10mi
Dew Point: 43°   Wind: 7mph
Humidity: 66%   Direction: 250°WSW
Pressure: 29.6"   Gusts: NA
Location:  42.1258°N, 76.8803°W
Report Text: KELM 260253Z AUTO 25006KT 10SM CLR 12/06 A2960 RMK AO2 SLP022 T01220061 58009
Loading
Personal Weather Stations






























Interactive Weather Map
Tropical Storm Tracking
New forecast layout! Learn more

10-Day Weather Forecast

Advertisements
Track Severe Weather on mobile